Date,TemperatureHighF,TemperatureAvgF,TemperatureLowF,DewpointHighF,DewpointAvgF,DewpointLowF,HumidityHigh,HumidityAvg,HumidityLow,PressureMaxIn,PressureMinIn,WindSpeedMaxMPH,WindSpeedAvgMPH,GustSpeedMaxMPH,PrecipitationSumIn
2013-2-1,73.6,57.6,46.4,34.1,28.1,19.4,53,35,16,30.39,30.27,12,2,13,0.00
2013-2-2,77.0,60.2,47.8,40.5,35.3,30.1,54,41,22,30.33,30.21,8,2,9,0.00
2013-2-3,75.2,60.0,47.1,46.6,41.6,34.8,68,52,32,30.27,30.18,10,2,11,0.00
2013-2-4,73.6,57.9,46.2,48.3,37.8,33.4,74,50,24,30.21,30.12,10,1,10,0.00
2013-2-5,79.0,62.4,49.1,48.7,41.4,33.1,65,48,29,30.15,30.03,9,1,10,0.00
2013-2-6,82.2,67.6,56.8,57.0,51.1,47.5,72,58,31,30.18,30.09,13,1,13,0.00
2013-2-7,81.3,70.4,61.7,63.7,57.4,51.2,83,65,36,30.15,29.97,17,4,19,0.09
2013-2-8,81.0,70.5,61.5,63.5,57.3,51.5,85,65,38,30.18,29.97,14,4,15,0.00
2013-2-9,83.8,68.6,58.1,52.7,48.9,43.8,78,53,28,30.24,30.12,10,3,14,0.00
2013-2-10,84.7,71.4,62.6,56.8,52.1,47.6,71,52,31,30.30,30.21,12,3,14,0.00
2013-2-11,82.4,71.5,63.0,61.9,57.4,53.1,77,62,41,30.27,30.18,15,3,15,0.00
2013-2-12,82.4,72.9,65.3,67.4,63.2,59.3,87,73,50,30.18,30.06,16,4,16,0.00
2013-2-13,81.9,72.9,66.2,71.5,65.1,51.3,94,78,57,30.09,29.97,17,5,17,0.00
2013-2-14,69.1,64.9,62.2,58.8,55.8,51.8,86,73,55,30.12,30.03,15,2,15,0.46
2013-2-15,75.2,64.5,60.8,60.0,54.7,47.2,89,72,46,30.15,30.03,8,2,8,0.20
2013-2-16,72.1,60.8,53.8,50.4,43.4,30.7,78,55,35,30.18,30.00,20,4,22,0.00
2013-2-17,61.7,52.0,43.7,31.0,21.6,15.1,45,31,19,30.39,30.18,14,3,17,0.00
2013-2-18,74.5,56.2,39.0,38.5,30.2,22.4,53,39,24,30.39,30.27,13,2,13,0.00
2013-2-19,77.9,65.1,52.5,55.5,47.7,37.7,73,55,38,30.27,30.18,15,2,15,0.00
2013-2-20,80.6,70.2,60.4,63.4,56.0,52.5,87,62,42,30.18,30.09,12,2,12,0.00
2013-2-21,83.5,70.5,61.2,63.4,55.9,51.0,80,62,36,30.18,30.09,15,2,15,0.00
2013-2-22,83.7,72.2,63.0,67.8,60.6,56.0,89,69,43,30.15,30.09,17,3,17,0.00
2013-2-23,83.8,74.5,68.9,70.3,66.1,63.0,91,76,55,30.09,30.00,15,4,17,0.00
2013-2-24,84.0,74.2,68.4,68.4,65.5,61.4,92,76,49,30.06,30.00,11,2,11,0.00
2013-2-25,83.5,75.4,67.3,68.1,65.0,62.4,89,71,51,30.00,29.88,15,3,15,0.00
2013-2-26,77.4,72.8,68.5,70.5,65.2,59.5,90,77,66,30.00,29.82,18,4,18,0.46
2013-2-27,77.0,69.0,61.7,61.0,53.2,47.9,77,58,41,30.09,29.94,11,2,11,0.00
2013-2-28,77.9,67.2,58.5,54.2,47.9,41.8,74,52,32,30.09,30.00,12,2,12,0.00